METAR Data
IDs: Format: Raw Decoded Include TAF

Data at: 0318 UTC 25 Feb 2021

LICA 250250Z AUTO 07003KT //// // BKN017 08/07 Q1031